Millersburg, Iowa
Current Conditions -  °F | °C
As of 9:35 PM on Friday 19 Dec 2014 (Local Time) from KOOA Reporting Station
Haze Haze  
Wind Chill: 24°   Ceiling: 2200
Heat Index: 29°   Visibility: 5mi
Dew Point: 27°   Wind: 5mph
Humidity: 92%   Direction: 160°SSE
Pressure: 30.24"   Gusts: NA
Location:  41.57°N, 92.16°W
Report Text: KOOA 200335Z AUTO 16004KT 5SM BR OVC022 M01/M03 A3024 RMK AO2 T10151027
Loading
Personal Weather Stations






























Interactive Weather Map New forecast layout! Learn more

10-Day Weather Forecast

Advertisements
Track Severe Weather on mobile